Terminal Aerodrome Forecast
Issued by NWS

Home | Current Version | Previous Version | Text Only | Print | Product List | Glossary On
Versions: 1 2 3 4 5 6 7 8 9 10 11 12 13
879
FTUS45 KFGZ 220534
TAFGCN
TAF
KGCN 220534Z 2206/2306 22008G15KT P6SM FEW050 FEW250
      TEMPO 2214/2218 BKN030
     FM221800 22015G25KT P6SM FEW050
     FM230200 22010KT P6SM SKC=

USA.gov is the U.S. government's official web portal to all federal, state and local government web resources and services.